createdAt,value
2023-03-22T00:00:39.736Z,28.70
2023-03-22T00:01:39.554Z,29.30
2023-03-22T00:02:39.584Z,32.70
2023-03-22T00:03:39.567Z,33.40
2023-03-22T00:04:39.575Z,34.50
2023-03-22T00:05:39.515Z,36.30
2023-03-22T00:06:39.543Z,48.90
2023-03-22T00:07:39.511Z,46.80
2023-03-22T00:08:39.495Z,53.20
2023-03-22T00:09:39.526Z,48.20
2023-03-22T00:10:39.687Z,49.10
2023-03-22T00:11:39.467Z,39.70
2023-03-22T00:12:39.465Z,36.40
2023-03-22T00:13:39.468Z,31.40
2023-03-22T00:14:39.563Z,36.00
2023-03-22T00:15:39.516Z,35.10
2023-03-22T00:16:39.427Z,34.60
2023-03-22T00:17:39.433Z,40.40
2023-03-22T00:18:39.434Z,37.80
2023-03-22T00:19:39.428Z,42.60
2023-03-22T00:20:39.702Z,37.60
2023-03-22T00:21:39.403Z,39.90
2023-03-22T00:22:39.389Z,39.80
2023-03-22T00:23:39.394Z,126.20
2023-03-22T00:24:39.410Z,109.00
2023-03-22T00:25:39.372Z,100.00
2023-03-22T00:26:39.365Z,88.90
2023-03-22T00:27:39.346Z,74.30
2023-03-22T00:28:39.351Z,48.50
2023-03-22T00:29:39.391Z,37.20
2023-03-22T00:30:39.588Z,32.40
2023-03-22T00:31:39.393Z,39.50
2023-03-22T00:32:39.338Z,43.10
2023-03-22T00:33:39.339Z,40.40
2023-03-22T00:34:39.336Z,39.20
2023-03-22T00:35:39.333Z,47.10
2023-03-22T00:36:39.294Z,44.00
2023-03-22T00:37:39.277Z,46.70
2023-03-22T00:38:45.376Z,43.60
2023-03-22T00:39:41.300Z,39.80
2023-03-22T00:40:39.562Z,34.20
2023-03-22T00:41:39.298Z,36.60
2023-03-22T00:42:39.273Z,37.60
2023-03-22T00:43:39.414Z,37.30
2023-03-22T00:44:39.258Z,40.60
2023-03-22T00:45:39.260Z,36.50
2023-03-22T00:46:39.229Z,36.40
2023-03-22T00:47:39.227Z,39.30
2023-03-22T00:48:39.235Z,35.70
2023-03-22T00:49:39.194Z,37.00
2023-03-22T00:50:39.530Z,37.50
2023-03-22T00:51:39.183Z,39.50
2023-03-22T00:52:39.169Z,36.70
2023-03-22T00:53:42.419Z,36.30
2023-03-22T00:54:39.163Z,36.90
2023-03-22T00:55:39.180Z,36.90
2023-03-22T00:56:39.156Z,34.10
2023-03-22T00:57:39.135Z,37.20
2023-03-22T00:58:39.151Z,35.90
2023-03-22T00:59:39.699Z,36.50
2023-03-22T01:00:39.464Z,40.70
2023-03-22T01:01:39.094Z,43.30
2023-03-22T01:02:39.101Z,37.30
2023-03-22T01:03:39.117Z,33.80
2023-03-22T01:04:39.072Z,32.70
2023-03-22T01:05:39.079Z,31.20
2023-03-22T01:06:39.116Z,32.40
2023-03-22T01:07:39.051Z,28.50
2023-03-22T01:08:39.440Z,28.60
2023-03-22T01:09:39.045Z,30.50
2023-03-22T01:10:39.243Z,30.10
2023-03-22T01:11:39.057Z,27.90
2023-03-22T01:12:39.015Z,28.90
2023-03-22T01:13:39.026Z,29.70
2023-03-22T01:14:38.998Z,30.90
2023-03-22T01:15:39.016Z,32.50
2023-03-22T01:16:39.058Z,30.00
2023-03-22T01:17:39.019Z,29.00
2023-03-22T01:18:38.971Z,28.60
2023-03-22T01:19:38.964Z,31.20
2023-03-22T01:20:39.364Z,26.50
2023-03-22T01:21:38.979Z,27.20
2023-03-22T01:22:38.943Z,27.70
2023-03-22T01:23:38.935Z,33.30
2023-03-22T01:24:38.927Z,30.20
2023-03-22T01:25:39.026Z,30.50
2023-03-22T01:26:38.954Z,31.70
2023-03-22T01:27:38.903Z,30.00
2023-03-22T01:28:38.894Z,30.10
2023-03-22T01:29:38.888Z,28.40
2023-03-22T01:30:39.139Z,29.20
2023-03-22T01:31:38.901Z,28.30
2023-03-22T01:32:38.871Z,33.20
2023-03-22T01:33:38.855Z,27.20
2023-03-22T01:34:39.858Z,31.40
2023-03-22T01:35:38.877Z,29.50
2023-03-22T01:36:38.854Z,29.30
2023-03-22T01:37:38.879Z,29.30
2023-03-22T01:38:38.825Z,34.30
2023-03-22T01:39:38.826Z,41.90
2023-03-22T01:40:39.173Z,35.80
2023-03-22T01:41:38.827Z,30.20
2023-03-22T01:42:38.859Z,32.30
2023-03-22T01:43:38.794Z,37.40
2023-03-22T01:44:38.844Z,37.70
2023-03-22T01:45:38.792Z,32.70
2023-03-22T01:46:38.838Z,38.10
2023-03-22T01:47:38.812Z,38.20
2023-03-22T01:48:38.847Z,46.70
2023-03-22T01:49:38.758Z,45.00
2023-03-22T01:50:39.060Z,45.00
2023-03-22T01:51:38.748Z,39.90
2023-03-22T01:52:38.753Z,37.50
2023-03-22T01:53:38.721Z,36.80
2023-03-22T01:54:38.708Z,37.10
2023-03-22T01:55:38.698Z,36.80
2023-03-22T01:56:38.707Z,42.90
2023-03-22T01:57:38.721Z,44.70
2023-03-22T01:58:38.686Z,47.00
2023-03-22T01:59:38.681Z,47.60
2023-03-22T02:00:38.882Z,49.60
2023-03-22T02:01:38.712Z,47.70
2023-03-22T02:02:38.729Z,48.30
2023-03-22T02:03:38.639Z,48.70
2023-03-22T02:04:38.628Z,47.80
2023-03-22T02:05:38.625Z,51.00
2023-03-22T02:06:38.634Z,47.00
2023-03-22T02:07:38.644Z,49.30
2023-03-22T02:08:38.604Z,44.30
2023-03-22T02:09:38.595Z,45.90
2023-03-22T02:10:38.796Z,43.10
2023-03-22T02:11:38.596Z,36.60
2023-03-22T02:12:38.614Z,29.00
2023-03-22T02:13:38.569Z,31.40
2023-03-22T02:14:38.565Z,29.80
2023-03-22T02:15:38.579Z,29.50
2023-03-22T02:16:38.550Z,28.50
2023-03-22T02:17:38.587Z,35.90
2023-03-22T02:18:38.542Z,45.90
2023-03-22T02:19:38.533Z,44.70
2023-03-22T02:20:38.882Z,43.70
2023-03-22T02:21:38.510Z,43.00
2023-03-22T02:22:38.537Z,41.10
2023-03-22T02:23:38.503Z,33.70
2023-03-22T02:24:38.488Z,35.10
2023-03-22T02:25:38.483Z,36.00
2023-03-22T02:26:38.480Z,35.30
2023-03-22T02:27:38.472Z,33.60
2023-03-22T02:28:38.502Z,31.80
2023-03-22T02:29:38.477Z,31.70
2023-03-22T02:30:38.723Z,44.70
2023-03-22T02:31:38.478Z,38.40
2023-03-22T02:32:38.435Z,45.20
2023-03-22T02:33:41.188Z,42.60
2023-03-22T02:34:38.420Z,42.90
2023-03-22T02:35:38.441Z,41.00
2023-03-22T02:36:38.403Z,37.60
2023-03-22T02:37:38.409Z,33.40
2023-03-22T02:38:38.417Z,34.70
2023-03-22T02:39:38.365Z,35.40
2023-03-22T02:40:39.614Z,33.60
2023-03-22T02:41:38.363Z,33.50
2023-03-22T02:42:38.359Z,33.20
2023-03-22T02:43:38.688Z,32.60
2023-03-22T02:44:38.341Z,42.00
2023-03-22T02:45:38.333Z,35.50
2023-03-22T02:46:38.335Z,46.80
2023-03-22T02:47:38.321Z,51.80
2023-03-22T02:48:38.338Z,58.50
2023-03-22T02:49:38.307Z,42.20
2023-03-22T02:50:38.569Z,52.80
2023-03-22T02:51:38.303Z,58.50
2023-03-22T02:52:38.289Z,82.70
2023-03-22T02:53:38.345Z,65.30
2023-03-22T02:54:38.262Z,49.60
2023-03-22T02:55:39.259Z,55.20
2023-03-22T02:56:38.259Z,47.00
2023-03-22T02:57:38.247Z,40.20
2023-03-22T02:58:38.264Z,51.80
2023-03-22T02:59:38.237Z,50.10
2023-03-22T03:00:38.649Z,53.20
2023-03-22T03:01:38.255Z,39.60
2023-03-22T03:02:38.209Z,40.60
2023-03-22T03:03:38.229Z,38.40
2023-03-22T03:04:38.207Z,37.60
2023-03-22T03:05:38.195Z,34.80
2023-03-22T03:06:38.177Z,30.50
2023-03-22T03:07:38.175Z,33.50
2023-03-22T03:08:38.190Z,33.80
2023-03-22T03:09:38.149Z,30.90
2023-03-22T03:10:38.424Z,27.90
2023-03-22T03:11:38.137Z,27.10
2023-03-22T03:12:38.137Z,31.80
2023-03-22T03:13:38.147Z,27.60
2023-03-22T03:14:38.113Z,32.50
2023-03-22T03:15:38.114Z,32.10
2023-03-22T03:16:38.145Z,37.00
2023-03-22T03:17:38.100Z,47.40
2023-03-22T03:18:38.115Z,79.40
2023-03-22T03:19:38.083Z,63.00
2023-03-22T03:20:38.506Z,71.90
2023-03-22T03:21:38.066Z,89.70
2023-03-22T03:22:38.060Z,78.00
2023-03-22T03:23:38.082Z,80.60
2023-03-22T03:24:38.042Z,101.60
2023-03-22T03:25:38.034Z,53.60
2023-03-22T03:26:38.028Z,114.00
2023-03-22T03:27:38.055Z,143.20
2023-03-22T03:28:38.033Z,143.70
2023-03-22T03:29:38.016Z,44.00
2023-03-22T03:30:38.271Z,41.10
2023-03-22T03:31:38.054Z,45.00
2023-03-22T03:32:37.987Z,44.10
2023-03-22T03:33:38.002Z,45.30
2023-03-22T03:34:37.968Z,41.30
2023-03-22T03:35:37.970Z,41.70
2023-03-22T03:36:38.011Z,36.80
2023-03-22T03:37:37.944Z,36.20
2023-03-22T03:38:37.961Z,35.70
2023-03-22T03:39:37.957Z,40.90
2023-03-22T03:40:38.180Z,43.30
2023-03-22T03:41:37.908Z,37.20
2023-03-22T03:42:37.903Z,63.30
2023-03-22T03:43:37.909Z,45.10
2023-03-22T03:44:37.916Z,74.00
2023-03-22T03:45:37.906Z,82.70
2023-03-22T03:46:37.877Z,41.10
2023-03-22T03:47:37.873Z,85.60
2023-03-22T03:48:37.852Z,66.80
2023-03-22T03:49:37.870Z,440.40
2023-03-22T03:50:38.116Z,239.20
2023-03-22T03:51:37.840Z,127.50
2023-03-22T03:52:37.823Z,145.10
2023-03-22T03:53:37.841Z,122.90
2023-03-22T03:54:37.840Z,50.00
2023-03-22T03:55:37.906Z,37.10
2023-03-22T03:56:37.795Z,54.20
2023-03-22T03:57:37.794Z,38.70
2023-03-22T03:58:37.780Z,39.40
2023-03-22T03:59:37.813Z,63.80
2023-03-22T04:00:38.016Z,52.20
2023-03-22T04:01:37.763Z,44.70
2023-03-22T04:02:37.801Z,40.70
2023-03-22T04:03:37.763Z,60.70
2023-03-22T04:04:37.792Z,59.10
2023-03-22T04:05:37.731Z,53.30
2023-03-22T04:06:37.720Z,42.20
2023-03-22T04:07:37.715Z,52.20
2023-03-22T04:08:37.707Z,45.50
2023-03-22T04:09:37.728Z,70.90
2023-03-22T04:10:38.018Z,51.70
2023-03-22T04:11:37.685Z,48.40
2023-03-22T04:12:37.676Z,42.10
2023-03-22T04:13:37.670Z,44.80
2023-03-22T04:14:37.680Z,44.10
2023-03-22T04:15:37.659Z,50.00
2023-03-22T04:16:37.692Z,50.10
2023-03-22T04:17:37.635Z,42.80
2023-03-22T04:18:37.630Z,60.50
2023-03-22T04:19:37.658Z,63.90
2023-03-22T04:20:37.795Z,81.30
2023-03-22T04:21:37.609Z,263.70
2023-03-22T04:22:37.593Z,361.00
2023-03-22T04:23:37.587Z,181.40
2023-03-22T04:24:37.620Z,86.50
2023-03-22T04:25:37.575Z,76.00
2023-03-22T04:26:37.594Z,73.60
2023-03-22T04:27:37.556Z,68.00
2023-03-22T04:28:37.568Z,64.10
2023-03-22T04:29:37.560Z,59.10
2023-03-22T04:30:37.818Z,101.30
2023-03-22T04:31:37.524Z,41.70
2023-03-22T04:32:37.518Z,36.00
2023-03-22T04:33:37.514Z,37.90
2023-03-22T04:34:37.528Z,34.30
2023-03-22T04:35:37.536Z,33.30
2023-03-22T04:36:37.501Z,51.60
2023-03-22T04:37:37.492Z,59.90
2023-03-22T04:38:37.474Z,196.30
2023-03-22T04:39:37.677Z,127.90
2023-03-22T04:40:37.779Z,109.40
2023-03-22T04:41:37.451Z,201.80
2023-03-22T04:42:37.444Z,264.20
2023-03-22T04:43:37.434Z,259.90
2023-03-22T04:44:37.531Z,224.60
2023-03-22T04:45:37.424Z,174.90
2023-03-22T04:46:37.445Z,222.60
2023-03-22T04:47:37.441Z,147.30
2023-03-22T04:48:37.402Z,257.40
2023-03-22T04:49:37.432Z,85.50
2023-03-22T04:50:37.662Z,116.70
2023-03-22T04:51:37.376Z,77.40
2023-03-22T04:52:37.371Z,98.50
2023-03-22T04:53:37.366Z,82.20
2023-03-22T04:54:37.344Z,218.80
2023-03-22T04:55:37.381Z,102.20
2023-03-22T04:56:37.334Z,100.50
2023-03-22T04:57:37.330Z,105.40
2023-03-22T04:58:37.331Z,106.80
2023-03-22T04:59:37.323Z,74.90
2023-03-22T05:00:37.511Z,112.70
2023-03-22T05:01:37.425Z,175.00
2023-03-22T05:02:39.391Z,185.40
2023-03-22T05:03:37.286Z,145.80
2023-03-22T05:04:37.282Z,143.40
2023-03-22T05:05:37.298Z,88.00
2023-03-22T05:06:37.263Z,52.60
2023-03-22T05:07:38.262Z,101.20
2023-03-22T05:08:37.252Z,91.30
2023-03-22T05:09:37.255Z,49.00
2023-03-22T05:10:37.743Z,75.70
2023-03-22T05:11:37.238Z,305.90
2023-03-22T05:12:37.229Z,150.00
2023-03-22T05:13:37.235Z,169.30
2023-03-22T05:14:37.226Z,105.90
2023-03-22T05:15:37.284Z,137.30
2023-03-22T05:16:37.197Z,210.20
2023-03-22T05:17:37.198Z,277.10
2023-03-22T05:18:37.186Z,155.50
2023-03-22T05:19:37.178Z,158.60
2023-03-22T05:20:37.527Z,80.00
2023-03-22T05:21:37.167Z,72.30
2023-03-22T05:22:37.160Z,56.70
2023-03-22T05:23:37.152Z,43.00
2023-03-22T05:24:37.147Z,41.50
2023-03-22T05:25:37.158Z,46.60
2023-03-22T05:26:37.125Z,55.70
2023-03-22T05:27:37.115Z,42.80
2023-03-22T05:28:37.117Z,42.40
2023-03-22T05:29:37.229Z,47.10
2023-03-22T05:30:37.204Z,50.10
2023-03-22T05:31:37.150Z,46.90
2023-03-22T05:32:37.081Z,42.90
2023-03-22T05:33:37.079Z,46.40
2023-03-22T05:34:37.088Z,46.40
2023-03-22T05:35:37.114Z,46.60
2023-03-22T05:36:37.050Z,46.20
2023-03-22T05:37:37.050Z,46.80
2023-03-22T05:38:37.038Z,56.60
2023-03-22T05:39:37.042Z,72.60
2023-03-22T05:40:37.223Z,136.90
2023-03-22T05:41:37.141Z,134.50
2023-03-22T05:42:37.032Z,110.20
2023-03-22T05:43:37.045Z,249.60
2023-03-22T05:44:37.003Z,83.50
2023-03-22T05:45:37.013Z,89.10
2023-03-22T05:46:37.034Z,73.30
2023-03-22T05:47:36.974Z,224.40
2023-03-22T05:48:36.972Z,91.80
2023-03-22T05:49:36.965Z,115.90
2023-03-22T05:50:37.029Z,144.20
2023-03-22T05:51:36.942Z,87.50
2023-03-22T05:52:36.944Z,68.80
2023-03-22T05:53:37.004Z,98.50
2023-03-22T05:54:36.958Z,147.30
2023-03-22T05:55:36.949Z,76.40
2023-03-22T05:56:36.953Z,72.40
2023-03-22T05:57:36.910Z,66.20
2023-03-22T05:58:36.945Z,67.30
2023-03-22T05:59:36.899Z,69.50
2023-03-22T06:00:36.907Z,59.20
2023-03-22T06:01:36.929Z,58.50
2023-03-22T06:02:36.866Z,56.20
2023-03-22T06:03:36.904Z,58.60
2023-03-22T06:04:36.856Z,58.10
2023-03-22T06:05:36.966Z,57.40
2023-03-22T06:06:36.848Z,51.80
2023-03-22T06:07:36.839Z,61.10
2023-03-22T06:08:36.820Z,55.50
2023-03-22T06:09:36.817Z,59.70
2023-03-22T06:10:36.859Z,56.60
2023-03-22T06:11:36.801Z,55.90
2023-03-22T06:12:36.792Z,51.00
2023-03-22T06:13:36.820Z,52.20
2023-03-22T06:14:36.780Z,51.70
2023-03-22T06:15:36.788Z,49.60
2023-03-22T06:16:36.785Z,53.80
2023-03-22T06:17:36.763Z,49.40
2023-03-22T06:18:36.751Z,51.40
2023-03-22T06:19:36.734Z,47.50
2023-03-22T06:20:36.891Z,47.40
2023-03-22T06:21:36.721Z,45.90
2023-03-22T06:22:36.711Z,49.10
2023-03-22T06:23:36.707Z,48.80
2023-03-22T06:24:36.698Z,48.50
2023-03-22T06:25:36.733Z,46.40
2023-03-22T06:26:36.686Z,52.30
2023-03-22T06:27:36.681Z,51.00
2023-03-22T06:28:36.667Z,48.60
2023-03-22T06:29:36.656Z,48.90
2023-03-22T06:30:36.732Z,49.20
2023-03-22T06:31:36.649Z,52.10
2023-03-22T06:32:36.638Z,49.70
2023-03-22T06:33:36.628Z,48.40
2023-03-22T06:34:36.657Z,47.90
2023-03-22T06:35:36.675Z,49.70
2023-03-22T06:36:36.604Z,47.70
2023-03-22T06:37:36.599Z,48.50
2023-03-22T06:38:36.583Z,44.30
2023-03-22T06:39:36.587Z,45.70
2023-03-22T06:40:36.603Z,43.50
2023-03-22T06:41:36.567Z,44.50
2023-03-22T06:42:36.552Z,43.20
2023-03-22T06:43:36.557Z,41.80
2023-03-22T06:44:36.539Z,45.90
2023-03-22T06:45:36.539Z,41.70
2023-03-22T06:46:36.545Z,39.70
2023-03-22T06:47:36.522Z,39.00
2023-03-22T06:48:36.504Z,38.30
2023-03-22T06:49:36.498Z,39.90
2023-03-22T06:50:36.486Z,41.10
2023-03-22T06:51:36.504Z,36.20
2023-03-22T06:52:36.478Z,37.60
2023-03-22T06:53:36.630Z,45.80
2023-03-22T06:54:36.470Z,45.40
2023-03-22T06:55:36.451Z,38.10
2023-03-22T06:56:36.477Z,36.10
2023-03-22T06:57:36.439Z,35.00
2023-03-22T06:58:36.435Z,33.10
2023-03-22T06:59:36.455Z,34.70
2023-03-22T07:00:36.424Z,35.70
2023-03-22T07:01:36.504Z,33.10
2023-03-22T07:02:36.418Z,32.50
2023-03-22T07:03:36.423Z,31.90
2023-03-22T07:04:36.438Z,33.00
2023-03-22T07:05:36.405Z,31.40
2023-03-22T07:06:36.391Z,32.90
2023-03-22T07:07:36.377Z,29.00
2023-03-22T07:08:36.358Z,29.90
2023-03-22T07:09:36.363Z,31.30
2023-03-22T07:10:36.347Z,38.80
2023-03-22T07:11:36.361Z,33.00
2023-03-22T07:12:36.333Z,32.50
2023-03-22T07:13:36.324Z,39.20
2023-03-22T07:14:36.350Z,38.60
2023-03-22T07:15:36.330Z,37.90
2023-03-22T07:16:36.321Z,38.10
2023-03-22T07:17:36.296Z,39.30
2023-03-22T07:18:36.290Z,37.30
2023-03-22T07:19:36.272Z,37.40
2023-03-22T07:20:36.264Z,33.00
2023-03-22T07:21:36.302Z,29.70
2023-03-22T07:22:36.262Z,30.60
2023-03-22T07:23:36.264Z,31.50
2023-03-22T07:24:44.654Z,32.70
2023-03-22T07:25:38.237Z,30.70
2023-03-22T07:26:36.262Z,26.30
2023-03-22T07:27:36.232Z,25.80
2023-03-22T07:28:36.213Z,28.30
2023-03-22T07:29:36.217Z,31.70
2023-03-22T07:30:36.197Z,28.10
2023-03-22T07:31:36.213Z,26.00
2023-03-22T07:32:36.207Z,25.60
2023-03-22T07:33:36.193Z,34.00
2023-03-22T07:34:36.164Z,29.20
2023-03-22T07:35:36.188Z,27.70
2023-03-22T07:36:36.174Z,24.70
2023-03-22T07:37:36.151Z,22.90
2023-03-22T07:38:36.157Z,22.90
2023-03-22T07:39:36.143Z,25.00
2023-03-22T07:40:36.293Z,24.30
2023-03-22T07:41:36.338Z,23.60
2023-03-22T07:42:36.130Z,24.30
2023-03-22T07:43:50.901Z,22.80
2023-03-22T07:44:38.212Z,22.30
2023-03-22T07:45:36.091Z,21.70
2023-03-22T07:46:36.177Z,23.30
2023-03-22T07:47:41.161Z,25.30
2023-03-22T07:48:38.063Z,23.10
2023-03-22T07:49:36.058Z,23.60
2023-03-22T07:50:36.048Z,22.50
2023-03-22T07:51:36.069Z,21.80
2023-03-22T07:52:36.034Z,22.20
2023-03-22T07:53:36.028Z,24.10
2023-03-22T07:54:36.028Z,20.40
2023-03-22T07:55:36.007Z,21.70
2023-03-22T07:56:36.046Z,21.80
2023-03-22T07:57:35.996Z,22.30
2023-03-22T07:58:35.997Z,22.30
2023-03-22T07:59:37.897Z,21.80
2023-03-22T08:00:35.970Z,18.90
2023-03-22T08:01:36.062Z,21.10
2023-03-22T08:02:36.058Z,16.70
2023-03-22T08:03:35.955Z,18.10
2023-03-22T08:04:35.937Z,18.50
2023-03-22T08:05:35.944Z,18.50
2023-03-22T08:06:35.952Z,20.60
2023-03-22T08:07:35.930Z,24.40
2023-03-22T08:08:35.944Z,25.20
2023-03-22T08:09:35.911Z,23.60
2023-03-22T08:10:35.896Z,22.30
2023-03-22T08:11:36.936Z,21.50
2023-03-22T08:12:35.887Z,18.40
2023-03-22T08:13:35.893Z,17.60
2023-03-22T08:14:37.210Z,15.80
2023-03-22T08:15:37.070Z,15.20
2023-03-22T08:16:35.937Z,14.90
2023-03-22T08:17:35.853Z,14.60
2023-03-22T08:18:35.842Z,17.70
2023-03-22T08:19:36.108Z,14.20
2023-03-22T08:20:35.820Z,15.20
2023-03-22T08:21:35.837Z,15.70
2023-03-22T08:22:35.809Z,13.00
2023-03-22T08:23:41.885Z,14.30
2023-03-22T08:24:37.797Z,13.20
2023-03-22T08:25:35.782Z,14.40
2023-03-22T08:26:35.812Z,14.70
2023-03-22T08:27:35.759Z,14.20
2023-03-22T08:28:35.786Z,12.70
2023-03-22T08:29:35.753Z,12.10
2023-03-22T08:30:35.746Z,12.90
2023-03-22T08:31:35.773Z,15.50
2023-03-22T08:32:35.739Z,14.80
2023-03-22T08:33:35.712Z,15.80
2023-03-22T08:34:35.716Z,15.20
2023-03-22T08:35:35.745Z,17.30
2023-03-22T08:36:35.735Z,14.60
2023-03-22T08:37:35.687Z,15.80
2023-03-22T08:38:35.692Z,14.00
2023-03-22T08:39:35.685Z,14.20
2023-03-22T08:40:35.671Z,14.40
2023-03-22T08:41:35.683Z,12.70
2023-03-22T08:42:35.653Z,13.40
2023-03-22T08:43:35.652Z,13.90
2023-03-22T08:44:35.629Z,15.50
2023-03-22T08:45:35.624Z,14.00
2023-03-22T08:46:35.672Z,12.90
2023-03-22T08:47:35.604Z,12.40
2023-03-22T08:48:35.604Z,11.70
2023-03-22T08:49:35.642Z,13.30
2023-03-22T08:50:35.586Z,14.20
2023-03-22T08:51:35.609Z,14.90
2023-03-22T08:52:35.573Z,12.30
2023-03-22T08:53:35.579Z,12.50
2023-03-22T08:54:36.320Z,13.70
2023-03-22T08:55:35.612Z,14.30
2023-03-22T08:56:35.612Z,12.50
2023-03-22T08:57:37.679Z,14.00
2023-03-22T08:58:35.526Z,13.30
2023-03-22T08:59:35.526Z,12.30
2023-03-22T09:00:47.676Z,14.40
2023-03-22T09:01:37.740Z,13.00
2023-03-22T09:02:35.508Z,13.50
2023-03-22T09:03:35.488Z,13.70
2023-03-22T09:04:35.519Z,15.80
2023-03-22T09:05:35.486Z,12.50
2023-03-22T09:06:35.473Z,14.70
2023-03-22T09:07:35.488Z,14.90
2023-03-22T09:08:35.450Z,14.20
2023-03-22T09:09:35.453Z,16.30
2023-03-22T09:10:35.487Z,17.10
2023-03-22T09:11:35.424Z,14.80
2023-03-22T09:12:35.445Z,15.80
2023-03-22T09:13:35.421Z,12.30
2023-03-22T09:14:35.407Z,13.10
2023-03-22T09:15:35.442Z,14.80
2023-03-22T09:16:35.527Z,14.70
2023-03-22T09:17:35.492Z,14.90
2023-03-22T09:18:35.374Z,14.60
2023-03-22T09:19:36.881Z,15.30
2023-03-22T09:20:36.389Z,13.80
2023-03-22T09:21:35.362Z,13.00
2023-03-22T09:22:35.410Z,14.20
2023-03-22T09:23:35.343Z,13.10
2023-03-22T09:24:35.334Z,12.80
2023-03-22T09:25:35.341Z,13.40
2023-03-22T09:26:35.311Z,14.50
2023-03-22T09:27:35.329Z,13.40
2023-03-22T09:28:35.303Z,13.50
2023-03-22T09:29:35.297Z,11.10
2023-03-22T09:30:35.286Z,10.60
2023-03-22T09:31:35.359Z,11.60
2023-03-22T09:32:35.310Z,12.00
2023-03-22T09:33:35.254Z,12.70
2023-03-22T09:34:35.254Z,12.60
2023-03-22T09:35:35.295Z,9.20
2023-03-22T09:36:35.260Z,9.70
2023-03-22T09:37:35.261Z,10.00
2023-03-22T09:38:35.219Z,9.30
2023-03-22T09:39:35.228Z,7.40
2023-03-22T09:40:35.203Z,7.80
2023-03-22T09:41:35.191Z,7.80
2023-03-22T09:42:35.221Z,7.10
2023-03-22T09:43:35.181Z,8.30
2023-03-22T09:44:35.179Z,6.50
2023-03-22T09:45:35.179Z,6.80
2023-03-22T09:46:35.224Z,7.50
2023-03-22T09:47:44.410Z,6.40
2023-03-22T09:48:37.169Z,7.70
2023-03-22T09:49:50.485Z,7.20
2023-03-22T09:50:37.136Z,5.70
2023-03-22T09:51:35.125Z,6.40
2023-03-22T09:52:35.188Z,6.10
2023-03-22T09:53:35.168Z,7.20
2023-03-22T09:54:35.093Z,5.90
2023-03-22T09:55:35.095Z,5.80
2023-03-22T09:56:35.077Z,6.30
2023-03-22T09:57:35.094Z,9.00
2023-03-22T09:58:35.091Z,6.00
2023-03-22T09:59:35.098Z,5.90
2023-03-22T10:00:35.107Z,7.50
2023-03-22T10:01:35.481Z,7.70
2023-03-22T10:02:35.103Z,7.50
2023-03-22T10:03:35.051Z,6.30
2023-03-22T10:04:35.157Z,6.40
2023-03-22T10:05:35.009Z,7.00
2023-03-22T10:06:35.845Z,6.00
2023-03-22T10:07:35.024Z,6.90
2023-03-22T10:08:34.988Z,6.10
2023-03-22T10:09:34.984Z,6.50
2023-03-22T10:10:34.965Z,4.40
2023-03-22T10:11:34.968Z,5.30
2023-03-22T10:12:35.000Z,6.50
2023-03-22T10:13:34.939Z,7.00
2023-03-22T10:14:35.948Z,4.40
2023-03-22T10:15:34.932Z,6.40
2023-03-22T10:16:35.052Z,6.00
2023-03-22T10:17:34.917Z,6.30
2023-03-22T10:18:34.935Z,6.50
2023-03-22T10:19:34.899Z,6.30
2023-03-22T10:20:34.897Z,7.80
2023-03-22T10:21:34.899Z,5.50
2023-03-22T10:22:34.880Z,5.30
2023-03-22T10:23:34.910Z,5.00
2023-03-22T10:24:34.866Z,4.10
2023-03-22T10:25:34.865Z,6.50
2023-03-22T10:26:34.848Z,6.10
2023-03-22T10:27:34.842Z,5.50
2023-03-22T10:28:34.872Z,7.30
2023-03-22T10:29:34.836Z,6.50
2023-03-22T10:30:34.814Z,7.40
2023-03-22T10:31:34.886Z,5.70
2023-03-22T10:32:35.587Z,6.40
2023-03-22T10:33:34.822Z,6.70
2023-03-22T10:34:34.791Z,6.20
2023-03-22T10:35:34.844Z,6.40
2023-03-22T10:36:34.807Z,7.40
2023-03-22T10:37:34.766Z,5.90
2023-03-22T10:38:34.790Z,8.50
2023-03-22T10:39:34.764Z,6.20
2023-03-22T10:40:34.745Z,6.20
2023-03-22T10:41:34.738Z,5.40
2023-03-22T10:42:34.736Z,5.50
2023-03-22T10:43:34.752Z,5.20
2023-03-22T10:44:34.714Z,5.20
2023-03-22T10:45:34.703Z,5.30
2023-03-22T10:46:34.726Z,5.60
2023-03-22T10:47:34.691Z,7.60
2023-03-22T10:48:34.809Z,7.20
2023-03-22T10:49:34.690Z,5.50
2023-03-22T10:50:34.680Z,5.40
2023-03-22T10:51:34.668Z,5.40
2023-03-22T10:52:34.657Z,5.90
2023-03-22T10:53:34.648Z,6.30
2023-03-22T10:54:34.664Z,7.20
2023-03-22T10:55:34.632Z,6.00
2023-03-22T10:56:34.648Z,6.10
2023-03-22T10:57:34.628Z,7.00
2023-03-22T10:58:34.614Z,6.00
2023-03-22T10:59:34.636Z,5.70
2023-03-22T11:00:36.531Z,5.40
2023-03-22T11:01:34.715Z,6.30
2023-03-22T11:02:34.633Z,5.20
2023-03-22T11:03:34.575Z,6.40
2023-03-22T11:04:34.592Z,5.40
2023-03-22T11:05:34.566Z,5.60
2023-03-22T11:06:34.557Z,5.10
2023-03-22T11:07:34.540Z,5.80
2023-03-22T11:08:34.530Z,5.60
2023-03-22T11:09:34.564Z,6.70
2023-03-22T11:10:34.597Z,6.30
2023-03-22T11:11:34.526Z,7.40
2023-03-22T11:12:34.505Z,5.20
2023-03-22T11:13:34.494Z,5.60
2023-03-22T11:14:34.513Z,6.40
2023-03-22T11:15:34.493Z,5.10
2023-03-22T11:16:34.487Z,6.50
2023-03-22T11:17:34.458Z,6.20
2023-03-22T11:18:34.451Z,5.60
2023-03-22T11:19:34.469Z,6.20
2023-03-22T11:20:34.500Z,6.20
2023-03-22T11:21:34.440Z,6.00
2023-03-22T11:22:34.422Z,7.10
2023-03-22T11:23:34.414Z,4.60
2023-03-22T11:24:34.460Z,5.40
2023-03-22T11:25:34.402Z,5.70
2023-03-22T11:26:35.932Z,5.30
2023-03-22T11:27:34.388Z,6.40
2023-03-22T11:28:34.388Z,6.70
2023-03-22T11:29:34.389Z,7.40
2023-03-22T11:30:34.368Z,5.70
2023-03-22T11:31:34.439Z,5.70
2023-03-22T11:32:34.382Z,6.10
2023-03-22T11:33:34.357Z,6.90
2023-03-22T11:34:34.366Z,7.10
2023-03-22T11:35:34.338Z,6.60
2023-03-22T11:36:34.314Z,5.90
2023-03-22T11:37:34.304Z,5.20
2023-03-22T11:38:34.296Z,5.10
2023-03-22T11:39:34.511Z,7.90
2023-03-22T11:40:34.288Z,4.90
2023-03-22T11:41:34.272Z,5.00
2023-03-22T11:42:34.277Z,5.60
2023-03-22T11:43:34.254Z,6.60
2023-03-22T11:44:34.290Z,5.10
2023-03-22T11:45:34.241Z,6.40
2023-03-22T11:46:34.319Z,6.50
2023-03-22T11:47:34.260Z,5.70
2023-03-22T11:48:34.330Z,6.20
2023-03-22T11:49:34.245Z,6.70
2023-03-22T11:50:35.203Z,6.70
2023-03-22T11:51:34.215Z,4.60
2023-03-22T11:52:34.228Z,4.40
2023-03-22T11:53:34.189Z,3.50
2023-03-22T11:54:34.206Z,3.90
2023-03-22T11:55:34.165Z,7.20
2023-03-22T11:56:34.172Z,4.70
2023-03-22T11:57:34.157Z,4.40
2023-03-22T11:58:34.141Z,3.90
2023-03-22T11:59:34.144Z,3.80
2023-03-22T12:00:34.151Z,4.70
2023-03-22T12:01:34.121Z,5.60
2023-03-22T12:02:34.225Z,5.00
2023-03-22T12:03:36.085Z,3.40
2023-03-22T12:04:34.105Z,4.00
2023-03-22T12:05:34.114Z,5.80
2023-03-22T12:06:34.236Z,4.40
2023-03-22T12:07:34.068Z,3.60
2023-03-22T12:08:34.058Z,4.10
2023-03-22T12:09:34.059Z,4.90
2023-03-22T12:10:34.071Z,4.20
2023-03-22T12:11:34.041Z,4.50
2023-03-22T12:12:34.040Z,3.90
2023-03-22T12:13:34.056Z,4.80
2023-03-22T12:14:34.014Z,5.60
2023-03-22T12:15:34.044Z,6.50
2023-03-22T12:16:34.061Z,3.50
2023-03-22T12:17:34.055Z,4.00
2023-03-22T12:18:34.025Z,5.20
2023-03-22T12:19:33.981Z,3.30
2023-03-22T12:20:34.001Z,4.40
2023-03-22T12:21:33.963Z,5.30
2023-03-22T12:22:33.950Z,3.60
2023-03-22T12:23:33.944Z,3.60
2023-03-22T12:24:33.937Z,4.40
2023-03-22T12:25:33.956Z,5.50
2023-03-22T12:26:33.926Z,3.30
2023-03-22T12:27:33.918Z,5.00
2023-03-22T12:28:33.909Z,4.90
2023-03-22T12:29:33.907Z,5.50
2023-03-22T12:30:33.916Z,4.00
2023-03-22T12:31:33.943Z,5.30
2023-03-22T12:32:33.910Z,3.50
2023-03-22T12:33:33.882Z,4.50
2023-03-22T12:34:33.882Z,5.40
2023-03-22T12:35:33.895Z,3.80
2023-03-22T12:36:33.843Z,5.40
2023-03-22T12:37:33.852Z,5.20
2023-03-22T12:38:33.869Z,4.10
2023-03-22T12:39:33.830Z,4.20
2023-03-22T12:40:33.836Z,4.70
2023-03-22T12:41:33.808Z,5.20
2023-03-22T12:42:35.005Z,4.90
2023-03-22T12:43:34.798Z,5.40
2023-03-22T12:44:33.793Z,4.80
2023-03-22T12:45:33.804Z,4.80
2023-03-22T12:46:33.780Z,4.70
2023-03-22T12:47:33.878Z,4.90
2023-03-22T12:48:33.858Z,6.30
2023-03-22T12:49:33.756Z,5.90
2023-03-22T12:50:33.762Z,8.10
2023-03-22T12:51:33.738Z,5.80
2023-03-22T12:52:44.667Z,5.20
2023-03-22T12:53:35.739Z,5.20
2023-03-22T12:54:33.709Z,4.60
2023-03-22T12:55:33.725Z,6.40
2023-03-22T12:56:33.692Z,6.80
2023-03-22T12:57:33.688Z,5.80